createdAt,value
2023-05-02T00:00:23.963Z,100314.92
2023-05-02T00:04:11.172Z,100312.06
2023-05-02T00:07:38.681Z,100310.84
2023-05-02T00:11:06.654Z,100311.36
2023-05-02T00:14:33.468Z,100310.48
2023-05-02T00:18:00.567Z,100306.48
2023-05-02T00:21:29.344Z,100301.77
2023-05-02T00:25:00.215Z,100298.96
2023-05-02T00:28:27.714Z,100300.54
2023-05-02T00:31:54.599Z,100300.20
2023-05-02T00:35:21.971Z,100298.64
2023-05-02T00:38:49.009Z,100297.48
2023-05-02T00:42:16.398Z,100296.44
2023-05-02T00:45:46.285Z,100294.20
2023-05-02T00:49:13.302Z,100288.30
2023-05-02T00:52:40.833Z,100292.52
2023-05-02T00:56:10.352Z,100287.33
2023-05-02T00:59:38.997Z,100290.66
2023-05-02T01:03:14.194Z,100288.79
2023-05-02T01:07:03.685Z,100287.60
2023-05-02T01:10:42.439Z,100290.98
2023-05-02T01:14:12.717Z,100289.45
2023-05-02T01:17:40.899Z,100288.29
2023-05-02T01:21:11.182Z,100288.88
2023-05-02T01:24:46.691Z,100288.92
2023-05-02T01:28:23.175Z,100289.01
2023-05-02T01:31:52.512Z,100288.36
2023-05-02T01:35:22.517Z,100294.55
2023-05-02T01:38:48.888Z,100294.27
2023-05-02T01:42:18.853Z,100294.48
2023-05-02T01:45:48.483Z,100297.13
2023-05-02T01:49:15.988Z,100298.58
2023-05-02T01:52:43.803Z,100301.23
2023-05-02T01:56:11.298Z,100297.59
2023-05-02T01:59:41.790Z,100285.55
2023-05-02T02:03:10.542Z,100284.70
2023-05-02T02:06:38.015Z,100277.36
2023-05-02T02:10:05.990Z,100275.62
2023-05-02T02:13:36.858Z,100281.23
2023-05-02T02:17:07.264Z,100287.36
2023-05-02T02:20:36.256Z,100292.31
2023-05-02T02:24:06.592Z,100295.86
2023-05-02T02:27:33.634Z,100296.45
2023-05-02T02:31:01.109Z,100292.63
2023-05-02T02:34:28.482Z,100296.49
2023-05-02T02:38:09.839Z,100304.38
2023-05-02T02:41:45.913Z,100318.38
2023-05-02T02:45:24.664Z,100323.26
2023-05-02T02:48:58.822Z,100323.59
2023-05-02T02:52:34.270Z,100320.61
2023-05-02T02:56:06.569Z,100327.42
2023-05-02T02:59:36.546Z,100334.04
2023-05-02T03:03:03.569Z,100343.63
2023-05-02T03:06:30.977Z,100344.81
2023-05-02T03:09:58.397Z,100346.34
2023-05-02T03:13:25.815Z,100348.09
2023-05-02T03:16:53.058Z,100352.59
2023-05-02T03:20:20.531Z,100352.40
2023-05-02T03:23:47.909Z,100355.36
2023-05-02T03:27:15.942Z,100356.23
2023-05-02T03:30:43.356Z,100362.13
2023-05-02T03:34:10.256Z,100371.16
2023-05-02T03:37:38.260Z,100376.69
2023-05-02T03:41:05.865Z,100386.42
2023-05-02T03:44:33.012Z,100390.23
2023-05-02T03:48:00.246Z,100405.06
2023-05-02T03:51:28.156Z,100416.60
2023-05-02T03:54:55.557Z,100424.99
2023-05-02T03:58:22.649Z,100428.34
2023-05-02T04:01:53.021Z,100429.57
2023-05-02T04:05:25.615Z,100428.02
2023-05-02T04:08:52.778Z,100432.59
2023-05-02T04:12:21.246Z,100438.40
2023-05-02T04:15:49.085Z,100439.66
2023-05-02T04:19:20.064Z,100444.96
2023-05-02T04:22:48.046Z,100449.20
2023-05-02T04:26:16.396Z,100451.16
2023-05-02T04:29:55.536Z,100451.52
2023-05-02T04:33:22.771Z,100453.45
2023-05-02T04:36:50.395Z,100454.36
2023-05-02T04:40:21.698Z,100454.38
2023-05-02T04:43:52.247Z,100450.34
2023-05-02T04:47:19.719Z,100450.84
2023-05-02T04:50:48.152Z,100452.59
2023-05-02T04:54:15.888Z,100454.52
2023-05-02T04:57:43.546Z,100454.53
2023-05-02T05:01:14.154Z,100456.14
2023-05-02T05:04:41.793Z,100455.30
2023-05-02T05:08:09.757Z,100454.67
2023-05-02T05:11:39.400Z,100454.73
2023-05-02T05:15:08.658Z,100448.83
2023-05-02T05:18:40.681Z,100452.02
2023-05-02T05:22:10.624Z,100443.35
2023-05-02T05:25:37.773Z,100448.29
2023-05-02T05:29:04.856Z,100456.42
2023-05-02T05:32:38.175Z,100459.50
2023-05-02T05:36:10.811Z,100465.88
2023-05-02T05:39:38.054Z,100464.79
2023-05-02T05:43:06.038Z,100463.36
2023-05-02T05:46:36.292Z,100464.73
2023-05-02T05:50:05.397Z,100470.10
2023-05-02T05:53:32.626Z,100479.66
2023-05-02T05:57:01.583Z,100486.80
2023-05-02T06:00:29.063Z,100496.40
2023-05-02T06:03:56.400Z,100502.67
2023-05-02T06:07:23.391Z,100507.35
2023-05-02T06:10:50.391Z,100514.86
2023-05-02T06:14:18.004Z,100513.97
2023-05-02T06:17:47.342Z,100518.45
2023-05-02T06:21:15.951Z,100520.29
2023-05-02T06:24:43.020Z,100521.79
2023-05-02T06:28:10.235Z,100524.87
2023-05-02T06:31:37.384Z,100530.02
2023-05-02T06:35:04.936Z,100534.07
2023-05-02T06:38:32.508Z,100539.82
2023-05-02T06:42:01.490Z,100545.91
2023-05-02T06:45:27.954Z,100549.80
2023-05-02T06:48:54.864Z,100559.09
2023-05-02T06:52:21.919Z,100559.47
2023-05-02T06:55:49.827Z,100567.80
2023-05-02T06:59:17.778Z,100573.59
2023-05-02T07:02:45.490Z,100581.95
2023-05-02T07:06:12.595Z,100582.63
2023-05-02T07:09:39.660Z,100586.12
2023-05-02T07:13:06.625Z,100589.95
2023-05-02T07:16:34.067Z,100591.83
2023-05-02T07:20:01.428Z,100593.18
2023-05-02T07:23:28.968Z,100606.25
2023-05-02T07:26:55.931Z,100610.23
2023-05-02T07:30:22.820Z,100616.88
2023-05-02T07:33:49.615Z,100617.92
2023-05-02T07:37:16.719Z,100626.19
2023-05-02T07:40:43.705Z,100630.27
2023-05-02T07:44:10.634Z,100631.44
2023-05-02T07:47:37.793Z,100636.60
2023-05-02T07:51:11.528Z,100638.63
2023-05-02T07:54:38.781Z,100643.45
2023-05-02T07:58:05.538Z,100639.81
2023-05-02T08:01:32.400Z,100640.02
2023-05-02T08:04:59.588Z,100643.06
2023-05-02T08:08:26.789Z,100643.52
2023-05-02T08:11:53.787Z,100645.50
2023-05-02T08:15:21.019Z,100650.14
2023-05-02T08:18:47.976Z,100655.02
2023-05-02T08:22:15.198Z,100661.46
2023-05-02T08:25:42.396Z,100668.55
2023-05-02T08:29:11.650Z,100669.76
2023-05-02T08:32:39.450Z,100676.82
2023-05-02T08:36:16.317Z,100677.48
2023-05-02T08:39:43.420Z,100681.79
2023-05-02T08:43:11.922Z,100685.37
2023-05-02T08:46:42.594Z,100683.97
2023-05-02T08:50:12.153Z,100682.54
2023-05-02T08:53:40.559Z,100686.55
2023-05-02T08:57:08.936Z,100684.50
2023-05-02T09:00:39.144Z,100685.88
2023-05-02T09:04:06.467Z,100692.36
2023-05-02T09:07:42.730Z,100693.35
2023-05-02T09:11:11.588Z,100694.48
2023-05-02T09:14:38.775Z,100698.33
2023-05-02T09:18:06.029Z,100701.91
2023-05-02T09:21:41.451Z,100702.19
2023-05-02T09:25:09.908Z,100709.40
2023-05-02T09:28:45.375Z,100707.02
2023-05-02T09:32:12.299Z,100713.33
2023-05-02T09:35:54.559Z,100716.80
2023-05-02T09:39:25.940Z,100721.52
2023-05-02T09:42:53.561Z,100720.59
2023-05-02T09:46:20.672Z,100729.03
2023-05-02T09:49:49.799Z,100725.61
2023-05-02T09:53:16.747Z,100734.00
2023-05-02T09:56:57.410Z,100737.27
2023-05-02T10:00:25.001Z,100740.71
2023-05-02T10:03:52.428Z,100743.11
2023-05-02T10:07:20.541Z,100742.84
2023-05-02T10:10:51.501Z,100745.52
2023-05-02T10:14:21.015Z,100751.48
2023-05-02T10:17:51.676Z,100748.70
2023-05-02T10:21:27.444Z,100752.02
2023-05-02T10:24:56.239Z,100749.76
2023-05-02T10:28:24.165Z,100760.27
2023-05-02T10:31:52.943Z,100769.27
2023-05-02T10:35:20.413Z,100768.98
2023-05-02T10:38:48.669Z,100769.02
2023-05-02T10:42:18.311Z,100775.57
2023-05-02T10:45:43.921Z,100773.23
2023-05-02T10:49:12.650Z,100777.35
2023-05-02T10:52:41.441Z,100774.96
2023-05-02T10:56:15.494Z,100770.05
2023-05-02T10:59:43.721Z,100779.93
2023-05-02T11:03:10.747Z,100778.27
2023-05-02T11:06:59.120Z,100783.58
2023-05-02T11:10:30.683Z,100788.69
2023-05-02T11:13:57.615Z,100788.02
2023-05-02T11:17:25.241Z,100791.08
2023-05-02T11:20:52.301Z,100793.05
2023-05-02T11:24:40.324Z,100803.51
2023-05-02T11:28:29.755Z,100806.95
2023-05-02T11:31:58.255Z,100810.23
2023-05-02T11:35:27.454Z,100803.14
2023-05-02T11:38:55.525Z,100808.38
2023-05-02T11:42:33.522Z,100809.80
2023-05-02T11:46:03.108Z,100820.50
2023-05-02T11:49:32.493Z,100829.42
2023-05-02T11:53:00.058Z,100832.91
2023-05-02T11:56:28.353Z,100831.86
2023-05-02T11:59:57.221Z,100836.29
2023-05-02T12:03:31.399Z,100839.33
2023-05-02T12:07:00.971Z,100840.52
2023-05-02T12:10:38.610Z,100845.05
2023-05-02T12:14:07.155Z,100845.86
2023-05-02T12:17:36.700Z,100846.66
2023-05-02T12:21:04.541Z,100849.01
2023-05-02T12:24:32.088Z,100857.42
2023-05-02T12:28:06.034Z,100861.81
2023-05-02T12:31:33.437Z,100870.70
2023-05-02T12:35:01.706Z,100874.58
2023-05-02T12:38:29.741Z,100878.58
2023-05-02T12:41:56.734Z,100880.23
2023-05-02T12:45:23.985Z,100886.06
2023-05-02T12:49:05.643Z,100888.80
2023-05-02T12:52:57.769Z,100895.73
2023-05-02T12:56:27.758Z,100896.23
2023-05-02T12:59:56.554Z,100900.69
2023-05-02T13:03:24.622Z,100905.37
2023-05-02T13:06:52.584Z,100910.66
2023-05-02T13:10:20.043Z,100914.91
2023-05-02T13:13:47.024Z,100918.45
2023-05-02T13:17:14.780Z,100924.58
2023-05-02T13:20:41.694Z,100932.08
2023-05-02T13:24:09.357Z,100939.50
2023-05-02T13:27:36.350Z,100941.11
2023-05-02T13:31:03.746Z,100942.77
2023-05-02T13:34:31.147Z,100949.64
2023-05-02T13:37:58.018Z,100950.58
2023-05-02T13:41:25.311Z,100953.45
2023-05-02T13:44:52.255Z,100956.22
2023-05-02T13:48:19.294Z,100958.25
2023-05-02T13:51:46.478Z,100956.80
2023-05-02T13:55:13.884Z,100962.33
2023-05-02T13:58:40.872Z,100958.17
2023-05-02T14:02:08.432Z,100961.23
2023-05-02T14:05:36.891Z,100966.29
2023-05-02T14:09:04.096Z,100975.02
2023-05-02T14:12:31.712Z,100977.76
2023-05-02T14:15:59.447Z,100979.09
2023-05-02T14:19:26.466Z,100989.84
2023-05-02T14:22:53.545Z,100992.89
2023-05-02T14:26:20.938Z,100992.35
2023-05-02T14:29:48.660Z,100995.79
2023-05-02T14:33:15.684Z,101000.61
2023-05-02T14:36:42.960Z,101003.96
2023-05-02T14:40:12.706Z,101007.13
2023-05-02T14:43:39.688Z,101006.23
2023-05-02T14:47:06.720Z,101015.95
2023-05-02T14:50:33.991Z,101018.93
2023-05-02T14:54:01.666Z,101023.86
2023-05-02T14:57:28.828Z,101017.67
2023-05-02T15:00:55.963Z,101016.96
2023-05-02T15:04:24.155Z,101024.89
2023-05-02T15:07:51.442Z,101030.52
2023-05-02T15:11:18.744Z,101028.98
2023-05-02T15:14:45.730Z,101034.16
2023-05-02T15:18:13.042Z,101039.81
2023-05-02T15:21:40.196Z,101034.01
2023-05-02T15:25:08.709Z,101046.71
2023-05-02T15:28:35.894Z,101050.42
2023-05-02T15:32:03.144Z,101058.02
2023-05-02T15:35:31.505Z,101053.44
2023-05-02T15:38:58.370Z,101053.96
2023-05-02T15:42:25.271Z,101062.42
2023-05-02T15:45:55.850Z,101067.03
2023-05-02T15:49:24.498Z,101069.84
2023-05-02T15:52:51.619Z,101070.70
2023-05-02T15:56:18.876Z,101072.97
2023-05-02T15:59:45.718Z,101077.36
2023-05-02T16:03:13.289Z,101077.71
2023-05-02T16:06:41.626Z,101076.83
2023-05-02T16:10:10.993Z,101082.98
2023-05-02T16:13:38.742Z,101088.73
2023-05-02T16:17:05.808Z,101095.34
2023-05-02T16:20:36.645Z,101102.64
2023-05-02T16:24:03.993Z,101108.84
2023-05-02T16:27:30.983Z,101111.86
2023-05-02T16:30:58.200Z,101119.15
2023-05-02T16:34:25.885Z,101121.52
2023-05-02T16:37:52.922Z,101125.65
2023-05-02T16:41:19.946Z,101130.16
2023-05-02T16:44:46.969Z,101135.33
2023-05-02T16:48:15.981Z,101137.86
2023-05-02T16:55:26.149Z,101144.06
2023-05-02T16:58:54.229Z,101148.20
2023-05-02T17:02:22.709Z,101155.30
2023-05-02T17:05:52.407Z,101157.78
2023-05-02T17:09:20.642Z,101158.88
2023-05-02T17:12:48.880Z,101168.63
2023-05-02T17:16:17.989Z,101168.00
2023-05-02T17:19:46.283Z,101168.60
2023-05-02T17:23:15.037Z,101172.73
2023-05-02T17:26:44.783Z,101174.77
2023-05-02T17:30:20.149Z,101176.76
2023-05-02T17:33:50.643Z,101181.56
2023-05-02T17:37:20.771Z,101188.80
2023-05-02T17:40:48.902Z,101199.67
2023-05-02T17:44:17.956Z,101206.31
2023-05-02T17:47:46.538Z,101205.88
2023-05-02T17:51:14.795Z,101216.85
2023-05-02T17:54:44.102Z,101223.61
2023-05-02T17:58:14.046Z,101230.58
2023-05-02T18:01:42.490Z,101233.59
2023-05-02T18:05:12.392Z,101234.19
2023-05-02T18:08:39.532Z,101236.71
2023-05-02T18:12:07.062Z,101240.98
2023-05-02T18:15:35.108Z,101237.50
2023-05-02T18:19:03.014Z,101242.59
2023-05-02T18:22:30.258Z,101244.49
2023-05-02T18:25:58.213Z,101248.24
2023-05-02T18:29:26.861Z,101249.02
2023-05-02T18:32:53.832Z,101253.58
2023-05-02T18:36:27.299Z,101260.83
2023-05-02T18:39:56.350Z,101267.71
2023-05-02T18:43:25.167Z,101279.11
2023-05-02T18:46:52.333Z,101285.75
2023-05-02T18:50:19.818Z,101293.11
2023-05-02T18:53:49.122Z,101302.08
2023-05-02T18:57:17.093Z,101305.95
2023-05-02T19:00:44.413Z,101309.58
2023-05-02T19:04:11.868Z,101316.75
2023-05-02T19:07:39.176Z,101323.63
2023-05-02T19:11:06.900Z,101325.45
2023-05-02T19:14:36.997Z,101327.20
2023-05-02T19:18:04.067Z,101333.63
2023-05-02T19:21:31.964Z,101343.03
2023-05-02T19:24:59.822Z,101347.62
2023-05-02T19:28:27.395Z,101344.84
2023-05-02T19:31:54.518Z,101347.67
2023-05-02T19:35:22.002Z,101356.60
2023-05-02T19:38:51.186Z,101357.98
2023-05-02T19:42:18.374Z,101362.81
2023-05-02T19:45:45.856Z,101366.44
2023-05-02T19:49:13.091Z,101375.15
2023-05-02T19:52:41.825Z,101376.23
2023-05-02T19:56:09.425Z,101379.58
2023-05-02T19:59:36.518Z,101384.88
2023-05-02T20:03:03.685Z,101386.30
2023-05-02T20:06:32.085Z,101389.17
2023-05-02T20:09:59.392Z,101388.73
2023-05-02T20:13:27.287Z,101388.98
2023-05-02T20:17:01.812Z,101395.41
2023-05-02T20:20:29.110Z,101393.89
2023-05-02T20:23:56.064Z,101401.45
2023-05-02T20:27:22.970Z,101405.52
2023-05-02T20:30:49.988Z,101408.46
2023-05-02T20:34:16.992Z,101412.09
2023-05-02T20:37:44.092Z,101419.59
2023-05-02T20:41:13.031Z,101426.25
2023-05-02T20:44:39.938Z,101428.89
2023-05-02T20:48:07.267Z,101433.16
2023-05-02T20:51:34.269Z,101434.94
2023-05-02T20:55:01.792Z,101436.09
2023-05-02T20:58:28.788Z,101439.11
2023-05-02T21:01:55.969Z,101447.00
2023-05-02T21:05:23.404Z,101451.09
2023-05-02T21:08:50.483Z,101451.01
2023-05-02T21:12:17.707Z,101456.17
2023-05-02T21:15:44.824Z,101458.20
2023-05-02T21:19:12.065Z,101461.76
2023-05-02T21:22:39.562Z,101462.14
2023-05-02T21:26:07.510Z,101466.52
2023-05-02T21:29:34.546Z,101468.11
2023-05-02T21:33:01.747Z,101474.86
2023-05-02T21:36:28.985Z,101475.34
2023-05-02T21:39:56.031Z,101475.05
2023-05-02T21:43:23.087Z,101474.97
2023-05-02T21:46:51.872Z,101475.62
2023-05-02T21:50:19.046Z,101477.61
2023-05-02T21:53:45.913Z,101476.30
2023-05-02T21:57:12.888Z,101478.08
2023-05-02T22:00:41.593Z,101474.39
2023-05-02T22:04:08.721Z,101477.56
2023-05-02T22:07:35.538Z,101483.25
2023-05-02T22:11:06.620Z,101484.41
2023-05-02T22:14:41.719Z,101492.00
2023-05-02T22:18:11.832Z,101499.66
2023-05-02T22:21:38.848Z,101502.84
2023-05-02T22:25:06.140Z,101507.76
2023-05-02T22:28:32.929Z,101510.56
2023-05-02T22:31:59.883Z,101517.26
2023-05-02T22:35:27.551Z,101521.16
2023-05-02T22:38:54.850Z,101517.69
2023-05-02T22:42:21.742Z,101523.61
2023-05-02T22:45:51.372Z,101522.77
2023-05-02T22:49:19.794Z,101520.84
2023-05-02T22:52:47.010Z,101520.52
2023-05-02T22:56:14.216Z,101518.61
2023-05-02T22:59:41.102Z,101522.82
2023-05-02T23:03:08.507Z,101526.02
2023-05-02T23:06:36.109Z,101528.48
2023-05-02T23:10:03.774Z,101531.81
2023-05-02T23:13:30.947Z,101532.35
2023-05-02T23:16:58.393Z,101539.00
2023-05-02T23:20:25.418Z,101539.22
2023-05-02T23:23:52.537Z,101544.54
2023-05-02T23:27:19.300Z,101546.42
2023-05-02T23:30:46.551Z,101549.22
2023-05-02T23:34:13.842Z,101551.48
2023-05-02T23:37:41.317Z,101553.42
2023-05-02T23:41:08.610Z,101552.21
2023-05-02T23:44:35.408Z,101554.77
2023-05-02T23:48:02.365Z,101556.27
2023-05-02T23:51:29.489Z,101555.95
2023-05-02T23:54:56.511Z,101562.77
2023-05-02T23:58:23.285Z,101561.98
